sensor_id;sensor_type;location;lat;lon;timestamp;pressure;altitude;pressure_sealevel;temperature;humidity
59825;BME280;45703;50.898;6.054;2023-06-19T00:00:37;99472.47;;;21.37;64.36
59825;BME280;45703;50.898;6.054;2023-06-19T00:03:04;99486.53;;;21.39;65.15
59825;BME280;45703;50.898;6.054;2023-06-19T00:05:29;99482.81;;;21.35;64.47
59825;BME280;45703;50.898;6.054;2023-06-19T00:07:54;99489.06;;;21.35;64.46
59825;BME280;45703;50.898;6.054;2023-06-19T00:10:20;99491.47;;;21.37;63.90
59825;BME280;45703;50.898;6.054;2023-06-19T00:12:45;99482.66;;;21.31;65.09
59825;BME280;45703;50.898;6.054;2023-06-19T00:15:11;99488.38;;;21.30;64.80
59825;BME280;45703;50.898;6.054;2023-06-19T00:17:36;99483.78;;;21.30;64.00
59825;BME280;45703;50.898;6.054;2023-06-19T00:20:05;99491.44;;;21.28;64.55
59825;BME280;45703;50.898;6.054;2023-06-19T00:22:33;99482.91;;;21.21;64.76
59825;BME280;45703;50.898;6.054;2023-06-19T00:24:59;99493.44;;;21.23;64.65
59825;BME280;45703;50.898;6.054;2023-06-19T00:27:24;99492.16;;;21.20;64.32
59825;BME280;45703;50.898;6.054;2023-06-19T00:29:52;99494.69;;;21.17;64.81
59825;BME280;45703;50.898;6.054;2023-06-19T00:32:18;99488.06;;;21.09;65.42
59825;BME280;45703;50.898;6.054;2023-06-19T00:34:43;99501.63;;;21.09;65.21
59825;BME280;45703;50.898;6.054;2023-06-19T00:37:09;99510.91;;;21.08;64.82
59825;BME280;45703;50.898;6.054;2023-06-19T00:39:35;99506.06;;;21.05;65.66
59825;BME280;45703;50.898;6.054;2023-06-19T00:42:00;99508.78;;;21.05;64.91
59825;BME280;45703;50.898;6.054;2023-06-19T00:44:26;99506.41;;;21.04;64.09
59825;BME280;45703;50.898;6.054;2023-06-19T00:46:58;99514.84;;;21.02;64.87
59825;BME280;45703;50.898;6.054;2023-06-19T00:49:25;99514.06;;;21.02;65.40
59825;BME280;45703;50.898;6.054;2023-06-19T00:51:51;99507.31;;;20.99;65.28
59825;BME280;45703;50.898;6.054;2023-06-19T00:54:17;99511.44;;;20.97;65.51
59825;BME280;45703;50.898;6.054;2023-06-19T00:56:44;99502.91;;;20.90;65.99
59825;BME280;45703;50.898;6.054;2023-06-19T00:59:18;99501.00;;;20.90;65.70
59825;BME280;45703;50.898;6.054;2023-06-19T01:01:44;99500.50;;;20.88;64.96
59825;BME280;45703;50.898;6.054;2023-06-19T01:04:10;99504.34;;;20.87;65.63
59825;BME280;45703;50.898;6.054;2023-06-19T01:06:46;99504.44;;;20.82;66.12
59825;BME280;45703;50.898;6.054;2023-06-19T01:09:16;99507.25;;;20.77;66.05
59825;BME280;45703;50.898;6.054;2023-06-19T01:11:55;99517.28;;;20.77;64.63
59825;BME280;45703;50.898;6.054;2023-06-19T01:14:35;99527.34;;;20.76;66.38
59825;BME280;45703;50.898;6.054;2023-06-19T01:17:03;99520.91;;;20.72;66.90
59825;BME280;45703;50.898;6.054;2023-06-19T01:19:29;99519.59;;;20.70;66.20
59825;BME280;45703;50.898;6.054;2023-06-19T01:21:55;99525.25;;;20.73;65.35
59825;BME280;45703;50.898;6.054;2023-06-19T01:24:20;99529.56;;;20.74;65.48
59825;BME280;45703;50.898;6.054;2023-06-19T01:26:46;99531.34;;;20.79;65.06
59825;BME280;45703;50.898;6.054;2023-06-19T01:29:16;99526.75;;;20.79;64.79
59825;BME280;45703;50.898;6.054;2023-06-19T01:31:53;99529.84;;;20.86;63.47
59825;BME280;45703;50.898;6.054;2023-06-19T01:34:20;99532.34;;;20.96;63.64
59825;BME280;45703;50.898;6.054;2023-06-19T01:36:48;99534.94;;;21.01;63.66
59825;BME280;45703;50.898;6.054;2023-06-19T01:39:16;99529.41;;;21.06;63.51
59825;BME280;45703;50.898;6.054;2023-06-19T01:41:43;99545.78;;;21.15;62.89
59825;BME280;45703;50.898;6.054;2023-06-19T01:44:09;99540.34;;;21.15;63.20
59825;BME280;45703;50.898;6.054;2023-06-19T01:46:35;99541.94;;;21.16;62.85
59825;BME280;45703;50.898;6.054;2023-06-19T01:49:00;99540.22;;;21.20;63.22
59825;BME280;45703;50.898;6.054;2023-06-19T01:51:26;99554.97;;;21.27;62.92
59825;BME280;45703;50.898;6.054;2023-06-19T01:53:51;99562.69;;;21.34;63.21
59825;BME280;45703;50.898;6.054;2023-06-19T01:56:17;99569.44;;;21.36;63.10
59825;BME280;45703;50.898;6.054;2023-06-19T01:58:42;99569.56;;;21.31;63.78
59825;BME280;45703;50.898;6.054;2023-06-19T02:01:08;99577.38;;;21.33;63.93
59825;BME280;45703;50.898;6.054;2023-06-19T02:03:33;99577.69;;;21.31;63.85
59825;BME280;45703;50.898;6.054;2023-06-19T02:05:58;99591.16;;;21.36;64.40
59825;BME280;45703;50.898;6.054;2023-06-19T02:08:24;99575.28;;;21.30;64.15
59825;BME280;45703;50.898;6.054;2023-06-19T02:10:49;99584.53;;;21.29;65.16
59825;BME280;45703;50.898;6.054;2023-06-19T02:13:14;99589.78;;;21.25;64.40
59825;BME280;45703;50.898;6.054;2023-06-19T02:15:40;99581.16;;;21.23;65.92
59825;BME280;45703;50.898;6.054;2023-06-19T02:18:06;99603.47;;;21.20;66.33
59825;BME280;45703;50.898;6.054;2023-06-19T02:20:31;99590.81;;;21.16;66.30
59825;BME280;45703;50.898;6.054;2023-06-19T02:22:57;99595.53;;;21.10;67.23
59825;BME280;45703;50.898;6.054;2023-06-19T02:25:22;99587.81;;;21.04;66.65
59825;BME280;45703;50.898;6.054;2023-06-19T02:27:48;99590.22;;;21.05;66.62
59825;BME280;45703;50.898;6.054;2023-06-19T02:30:13;99590.81;;;21.02;67.98
59825;BME280;45703;50.898;6.054;2023-06-19T02:32:39;99594.88;;;20.91;67.79
59825;BME280;45703;50.898;6.054;2023-06-19T02:35:06;99593.28;;;20.90;68.82
59825;BME280;45703;50.898;6.054;2023-06-19T02:37:34;99590.66;;;20.85;68.29
59825;BME280;45703;50.898;6.054;2023-06-19T02:40:01;99604.84;;;20.82;69.21
59825;BME280;45703;50.898;6.054;2023-06-19T02:42:28;99620.09;;;20.78;69.08
59825;BME280;45703;50.898;6.054;2023-06-19T02:44:53;99614.28;;;20.71;69.32
59825;BME280;45703;50.898;6.054;2023-06-19T02:47:19;99600.28;;;20.64;69.58
59825;BME280;45703;50.898;6.054;2023-06-19T02:49:44;99621.47;;;20.62;69.93
59825;BME280;45703;50.898;6.054;2023-06-19T02:52:09;99624.28;;;20.57;73.33
59825;BME280;45703;50.898;6.054;2023-06-19T02:54:35;99625.41;;;20.56;70.97
59825;BME280;45703;50.898;6.054;2023-06-19T02:57:00;99625.09;;;20.44;70.38
59825;BME280;45703;50.898;6.054;2023-06-19T02:59:26;99627.00;;;20.44;71.59
59825;BME280;45703;50.898;6.054;2023-06-19T03:01:51;99631.94;;;20.42;71.05
59825;BME280;45703;50.898;6.054;2023-06-19T03:04:17;99641.88;;;20.46;73.47
59825;BME280;45703;50.898;6.054;2023-06-19T03:06:42;99638.88;;;20.48;72.87
59825;BME280;45703;50.898;6.054;2023-06-19T03:09:08;99642.47;;;20.43;73.03
59825;BME280;45703;50.898;6.054;2023-06-19T03:11:40;99631.31;;;20.32;71.85
59825;BME280;45703;50.898;6.054;2023-06-19T03:14:06;99637.22;;;20.34;73.50
59825;BME280;45703;50.898;6.054;2023-06-19T03:16:33;99643.84;;;20.28;72.48
59825;BME280;45703;50.898;6.054;2023-06-19T03:18:59;99649.19;;;20.33;75.39
59825;BME280;45703;50.898;6.054;2023-06-19T03:21:25;99649.78;;;20.30;73.90
59825;BME280;45703;50.898;6.054;2023-06-19T03:23:50;99663.94;;;20.27;74.87
59825;BME280;45703;50.898;6.054;2023-06-19T03:26:16;99657.50;;;20.23;75.90
59825;BME280;45703;50.898;6.054;2023-06-19T03:28:41;99664.31;;;20.20;74.99
59825;BME280;45703;50.898;6.054;2023-06-19T03:31:07;99663.13;;;20.26;75.02
59825;BME280;45703;50.898;6.054;2023-06-19T03:33:32;99679.00;;;20.33;74.91
59825;BME280;45703;50.898;6.054;2023-06-19T03:35:57;99667.16;;;20.29;74.65
59825;BME280;45703;50.898;6.054;2023-06-19T03:38:23;99686.03;;;20.34;75.01
59825;BME280;45703;50.898;6.054;2023-06-19T03:40:48;99687.22;;;20.28;76.00
59825;BME280;45703;50.898;6.054;2023-06-19T03:43:13;99690.03;;;20.23;76.32
59825;BME280;45703;50.898;6.054;2023-06-19T03:45:39;99694.44;;;20.19;76.67
59825;BME280;45703;50.898;6.054;2023-06-19T03:48:04;99700.06;;;20.22;75.74
59825;BME280;45703;50.898;6.054;2023-06-19T03:50:30;99711.72;;;20.23;75.65
59825;BME280;45703;50.898;6.054;2023-06-19T03:52:55;99708.03;;;20.14;75.46
59825;BME280;45703;50.898;6.054;2023-06-19T03:55:21;99714.19;;;20.19;76.19
59825;BME280;45703;50.898;6.054;2023-06-19T03:57:46;99718.09;;;20.13;77.25
59825;BME280;45703;50.898;6.054;2023-06-19T04:00:12;99715.91;;;20.15;77.34
59825;BME280;45703;50.898;6.054;2023-06-19T04:02:41;99720.06;;;20.08;76.36
59825;BME280;45703;50.898;6.054;2023-06-19T04:05:07;99706.09;;;20.01;76.93
59825;BME280;45703;50.898;6.054;2023-06-19T04:07:32;99714.66;;;20.08;77.35
59825;BME280;45703;50.898;6.054;2023-06-19T04:09:58;99708.00;;;20.00;78.23
59825;BME280;45703;50.898;6.054;2023-06-19T04:12:24;99703.75;;;19.94;77.41
59825;BME280;45703;50.898;6.054;2023-06-19T04:14:49;99712.38;;;19.96;76.90
59825;BME280;45703;50.898;6.054;2023-06-19T04:17:14;99714.06;;;19.92;78.42
59825;BME280;45703;50.898;6.054;2023-06-19T04:19:40;99723.72;;;19.98;76.87
59825;BME280;45703;50.898;6.054;2023-06-19T04:22:06;99716.97;;;19.96;77.52
59825;BME280;45703;50.898;6.054;2023-06-19T04:24:31;99725.34;;;19.99;77.88
59825;BME280;45703;50.898;6.054;2023-06-19T04:26:56;99722.34;;;20.01;77.67
59825;BME280;45703;50.898;6.054;2023-06-19T04:29:22;99722.88;;;20.03;77.58
59825;BME280;45703;50.898;6.054;2023-06-19T04:31:47;99729.88;;;20.04;79.83
59825;BME280;45703;50.898;6.054;2023-06-19T04:34:15;99730.91;;;20.08;76.96
59825;BME280;45703;50.898;6.054;2023-06-19T04:36:41;99731.13;;;20.11;77.68
59825;BME280;45703;50.898;6.054;2023-06-19T04:39:06;99725.91;;;20.15;76.55
59825;BME280;45703;50.898;6.054;2023-06-19T04:41:32;99743.22;;;20.19;77.79
59825;BME280;45703;50.898;6.054;2023-06-19T04:43:57;99736.75;;;20.15;77.46
59825;BME280;45703;50.898;6.054;2023-06-19T04:46:23;99743.81;;;20.16;76.45
59825;BME280;45703;50.898;6.054;2023-06-19T04:48:48;99746.44;;;20.21;77.03
59825;BME280;45703;50.898;6.054;2023-06-19T04:51:18;99735.00;;;20.24;76.40
59825;BME280;45703;50.898;6.054;2023-06-19T04:53:49;99739.00;;;20.26;75.57
59825;BME280;45703;50.898;6.054;2023-06-19T04:56:14;99734.69;;;20.25;76.89
59825;BME280;45703;50.898;6.054;2023-06-19T04:58:41;99733.50;;;20.31;75.08
59825;BME280;45703;50.898;6.054;2023-06-19T05:01:15;99728.91;;;20.32;76.91
59825;BME280;45703;50.898;6.054;2023-06-19T05:03:42;99740.75;;;20.36;75.41
59825;BME280;45703;50.898;6.054;2023-06-19T05:06:07;99741.28;;;20.38;76.36
59825;BME280;45703;50.898;6.054;2023-06-19T05:08:33;99746.09;;;20.41;75.97
59825;BME280;45703;50.898;6.054;2023-06-19T05:10:59;99746.00;;;20.45;75.13
59825;BME280;45703;50.898;6.054;2023-06-19T05:13:24;99750.94;;;20.43;74.13
59825;BME280;45703;50.898;6.054;2023-06-19T05:15:50;99757.88;;;20.49;75.73
59825;BME280;45703;50.898;6.054;2023-06-19T05:18:18;99745.91;;;20.50;75.30
59825;BME280;45703;50.898;6.054;2023-06-19T05:20:44;99755.56;;;20.56;74.15
59825;BME280;45703;50.898;6.054;2023-06-19T05:23:09;99748.94;;;20.49;75.42
59825;BME280;45703;50.898;6.054;2023-06-19T05:25:35;99759.41;;;20.55;74.83
59825;BME280;45703;50.898;6.054;2023-06-19T05:28:00;99758.97;;;20.48;74.34
59825;BME280;45703;50.898;6.054;2023-06-19T05:30:25;99766.53;;;20.51;74.60
59825;BME280;45703;50.898;6.054;2023-06-19T05:32:51;99770.06;;;20.52;75.02
59825;BME280;45703;50.898;6.054;2023-06-19T05:35:16;99762.50;;;20.49;75.07
59825;BME280;45703;50.898;6.054;2023-06-19T05:37:42;99777.44;;;20.46;76.66
59825;BME280;45703;50.898;6.054;2023-06-19T05:40:11;99767.19;;;20.43;75.94
59825;BME280;45703;50.898;6.054;2023-06-19T05:42:36;99768.63;;;20.41;76.02
59825;BME280;45703;50.898;6.054;2023-06-19T05:45:03;99772.13;;;20.42;76.37
59825;BME280;45703;50.898;6.054;2023-06-19T05:47:29;99776.44;;;20.42;75.89
59825;BME280;45703;50.898;6.054;2023-06-19T05:49:56;99766.97;;;20.40;77.49
59825;BME280;45703;50.898;6.054;2023-06-19T05:52:21;99780.25;;;20.42;76.25
59825;BME280;45703;50.898;6.054;2023-06-19T05:54:47;99776.44;;;20.42;75.48
59825;BME280;45703;50.898;6.054;2023-06-19T05:57:13;99772.13;;;20.42;76.50
59825;BME280;45703;50.898;6.054;2023-06-19T05:59:41;99778.63;;;20.41;76.08
59825;BME280;45703;50.898;6.054;2023-06-19T06:02:06;99764.81;;;20.42;77.09
59825;BME280;45703;50.898;6.054;2023-06-19T06:04:33;99781.25;;;20.45;77.62
59825;BME280;45703;50.898;6.054;2023-06-19T06:06:59;99779.75;;;20.40;76.20
59825;BME280;45703;50.898;6.054;2023-06-19T06:09:25;99791.53;;;20.48;76.44
59825;BME280;45703;50.898;6.054;2023-06-19T06:11:50;99807.78;;;20.48;75.71
59825;BME280;45703;50.898;6.054;2023-06-19T06:14:15;99795.94;;;20.44;77.08
59825;BME280;45703;50.898;6.054;2023-06-19T06:16:41;99793.31;;;20.40;76.65
59825;BME280;45703;50.898;6.054;2023-06-19T06:19:06;99796.88;;;20.35;76.19
59825;BME280;45703;50.898;6.054;2023-06-19T06:21:32;99810.06;;;20.42;76.33
59825;BME280;45703;50.898;6.054;2023-06-19T06:23:57;99806.00;;;20.44;76.36
59825;BME280;45703;50.898;6.054;2023-06-19T06:26:22;99812.63;;;20.51;75.82
59825;BME280;45703;50.898;6.054;2023-06-19T06:28:48;99816.94;;;20.52;76.26
59825;BME280;45703;50.898;6.054;2023-06-19T06:31:13;99814.53;;;20.51;76.16
59825;BME280;45703;50.898;6.054;2023-06-19T06:33:39;99825.22;;;20.61;74.71
59825;BME280;45703;50.898;6.054;2023-06-19T06:36:04;99832.19;;;20.67;75.72
59825;BME280;45703;50.898;6.054;2023-06-19T06:38:29;99831.34;;;20.66;75.01
59825;BME280;45703;50.898;6.054;2023-06-19T06:40:55;99840.44;;;20.75;74.94
59825;BME280;45703;50.898;6.054;2023-06-19T06:43:21;99831.22;;;20.76;75.30
59825;BME280;45703;50.898;6.054;2023-06-19T06:45:47;99829.69;;;20.70;75.14
59825;BME280;45703;50.898;6.054;2023-06-19T06:48:12;99835.63;;;20.72;75.66
59825;BME280;45703;50.898;6.054;2023-06-19T06:50:38;99850.13;;;20.81;75.33
59825;BME280;45703;50.898;6.054;2023-06-19T06:53:03;99845.94;;;20.89;75.49
59825;BME280;45703;50.898;6.054;2023-06-19T06:55:29;99833.47;;;20.88;75.37
59825;BME280;45703;50.898;6.054;2023-06-19T06:57:54;99828.84;;;20.88;75.47
59825;BME280;45703;50.898;6.054;2023-06-19T07:00:20;99844.78;;;21.08;74.46
59825;BME280;45703;50.898;6.054;2023-06-19T07:02:45;99845.19;;;21.15;74.00
59825;BME280;45703;50.898;6.054;2023-06-19T07:05:13;99840.25;;;21.17;75.11
59825;BME280;45703;50.898;6.054;2023-06-19T07:07:38;99855.28;;;21.28;74.37
59825;BME280;45703;50.898;6.054;2023-06-19T07:10:04;99854.06;;;21.34;73.41
59825;BME280;45703;50.898;6.054;2023-06-19T07:12:30;99849.44;;;21.35;73.43
59825;BME280;45703;50.898;6.054;2023-06-19T07:14:55;99844.31;;;21.33;73.68
59825;BME280;45703;50.898;6.054;2023-06-19T07:17:21;99856.97;;;21.38;73.08
59825;BME280;45703;50.898;6.054;2023-06-19T07:19:47;99849.44;;;21.35;73.47
59825;BME280;45703;50.898;6.054;2023-06-19T07:22:13;99850.84;;;21.32;72.62
59825;BME280;45703;50.898;6.054;2023-06-19T07:24:40;99863.84;;;21.35;72.99
59825;BME280;45703;50.898;6.054;2023-06-19T07:27:06;99863.41;;;21.42;72.79
59825;BME280;45703;50.898;6.054;2023-06-19T07:29:31;99861.63;;;21.37;72.34
59825;BME280;45703;50.898;6.054;2023-06-19T07:31:57;99872.50;;;21.51;72.06
59825;BME280;45703;50.898;6.054;2023-06-19T07:34:23;99874.41;;;21.50;72.00
59825;BME280;45703;50.898;6.054;2023-06-19T07:36:48;99881.06;;;21.58;71.88
59825;BME280;45703;50.898;6.054;2023-06-19T07:39:14;99881.34;;;21.56;73.05
59825;BME280;45703;50.898;6.054;2023-06-19T07:41:39;99874.19;;;21.60;72.91
59825;BME280;45703;50.898;6.054;2023-06-19T07:44:05;99883.09;;;21.66;73.27
59825;BME280;45703;50.898;6.054;2023-06-19T07:46:31;99883.31;;;21.69;72.64
59825;BME280;45703;50.898;6.054;2023-06-19T07:48:56;99888.66;;;21.74;71.76
59825;BME280;45703;50.898;6.054;2023-06-19T07:51:21;99890.16;;;21.80;72.44
59825;BME280;45703;50.898;6.054;2023-06-19T07:53:47;99881.88;;;21.85;72.04
59825;BME280;45703;50.898;6.054;2023-06-19T07:56:12;99877.47;;;21.89;71.85
59825;BME280;45703;50.898;6.054;2023-06-19T07:58:38;99888.63;;;22.01;70.88
59825;BME280;45703;50.898;6.054;2023-06-19T08:01:03;99890.94;;;22.07;70.43
59825;BME280;45703;50.898;6.054;2023-06-19T08:03:28;99876.72;;;22.10;71.27
59825;BME280;45703;50.898;6.054;2023-06-19T08:05:55;99884.03;;;22.23;69.59
59825;BME280;45703;50.898;6.054;2023-06-19T08:08:21;99895.31;;;22.30;69.29
59825;BME280;45703;50.898;6.054;2023-06-19T08:10:46;99894.41;;;22.35;68.87
59825;BME280;45703;50.898;6.054;2023-06-19T08:13:12;99896.72;;;22.41;68.93
59825;BME280;45703;50.898;6.054;2023-06-19T08:15:37;99884.44;;;22.44;68.67
59825;BME280;45703;50.898;6.054;2023-06-19T08:18:03;99880.97;;;22.52;68.38
59825;BME280;45703;50.898;6.054;2023-06-19T08:20:28;99881.09;;;22.47;68.44
59825;BME280;45703;50.898;6.054;2023-06-19T08:22:53;99894.47;;;22.57;67.83
59825;BME280;45703;50.898;6.054;2023-06-19T08:25:19;99888.03;;;22.53;68.18
59825;BME280;45703;50.898;6.054;2023-06-19T08:27:44;99893.66;;;22.56;67.44
59825;BME280;45703;50.898;6.054;2023-06-19T08:30:13;99888.03;;;22.53;67.27
59825;BME280;45703;50.898;6.054;2023-06-19T08:32:38;99902.75;;;22.52;67.99
59825;BME280;45703;50.898;6.054;2023-06-19T08:35:04;99895.28;;;22.57;67.58
59825;BME280;45703;50.898;6.054;2023-06-19T08:37:29;99888.41;;;22.60;67.25
59825;BME280;45703;50.898;6.054;2023-06-19T08:39:55;99887.78;;;22.63;67.54
59825;BME280;45703;50.898;6.054;2023-06-19T08:42:21;99893.09;;;22.68;66.68
59825;BME280;45703;50.898;6.054;2023-06-19T08:44:48;99891.81;;;22.65;66.87
59825;BME280;45703;50.898;6.054;2023-06-19T08:47:13;99900.69;;;22.71;67.26
59825;BME280;45703;50.898;6.054;2023-06-19T08:49:39;99892.81;;;22.69;66.49
59825;BME280;45703;50.898;6.054;2023-06-19T08:52:05;99900.94;;;22.83;65.97
59825;BME280;45703;50.898;6.054;2023-06-19T08:54:31;99902.69;;;22.87;66.40
59825;BME280;45703;50.898;6.054;2023-06-19T08:57:00;99904.69;;;22.95;65.45
59825;BME280;45703;50.898;6.054;2023-06-19T08:59:26;99907.47;;;23.04;63.55
59825;BME280;45703;50.898;6.054;2023-06-19T09:01:54;99898.69;;;23.07;63.65
59825;BME280;45703;50.898;6.054;2023-06-19T09:04:22;99913.66;;;23.18;63.41
59825;BME280;45703;50.898;6.054;2023-06-19T09:07:00;99901.72;;;23.27;61.66
59825;BME280;45703;50.898;6.054;2023-06-19T09:09:27;99906.75;;;23.34;62.02
59825;BME280;45703;50.898;6.054;2023-06-19T09:16:56;99921.00;;;23.69;60.33
59825;BME280;45703;50.898;6.054;2023-06-19T09:19:22;99917.41;;;23.82;59.22
59825;BME280;45703;50.898;6.054;2023-06-19T09:21:47;99920.78;;;23.88;59.03
59825;BME280;45703;50.898;6.054;2023-06-19T09:24:12;99919.72;;;23.97;59.58
59825;BME280;45703;50.898;6.054;2023-06-19T09:26:38;99912.69;;;24.05;58.68
59825;BME280;45703;50.898;6.054;2023-06-19T09:29:13;99914.78;;;24.08;57.22
59825;BME280;45703;50.898;6.054;2023-06-19T09:31:41;99906.09;;;24.06;57.21
59825;BME280;45703;50.898;6.054;2023-06-19T09:34:07;99926.66;;;24.12;57.07
59825;BME280;45703;50.898;6.054;2023-06-19T09:36:33;99932.25;;;24.15;57.44
59825;BME280;45703;50.898;6.054;2023-06-19T09:39:00;99917.84;;;24.15;56.92
59825;BME280;45703;50.898;6.054;2023-06-19T09:41:28;99931.00;;;24.21;55.48
59825;BME280;45703;50.898;6.054;2023-06-19T09:43:55;99919.28;;;24.21;55.87
59825;BME280;45703;50.898;6.054;2023-06-19T09:46:26;99923.28;;;24.23;56.01
59825;BME280;45703;50.898;6.054;2023-06-19T09:48:53;99918.34;;;24.25;55.54
59825;BME280;45703;50.898;6.054;2023-06-19T09:51:23;99923.00;;;24.33;55.95
59825;BME280;45703;50.898;6.054;2023-06-19T09:53:49;99919.50;;;24.41;55.42
59825;BME280;45703;50.898;6.054;2023-06-19T09:56:16;99920.59;;;24.49;54.52
59825;BME280;45703;50.898;6.054;2023-06-19T09:58:48;99916.81;;;24.50;55.13
59825;BME280;45703;50.898;6.054;2023-06-19T10:01:15;99911.50;;;24.53;55.21
59825;BME280;45703;50.898;6.054;2023-06-19T10:03:43;99921.31;;;24.63;55.64
59825;BME280;45703;50.898;6.054;2023-06-19T10:06:13;99913.59;;;24.65;54.70
59825;BME280;45703;50.898;6.054;2023-06-19T10:08:41;99919.56;;;24.75;54.63
59825;BME280;45703;50.898;6.054;2023-06-19T10:11:12;99913.28;;;24.83;55.31
59825;BME280;45703;50.898;6.054;2023-06-19T10:13:40;99915.97;;;24.92;55.72
59825;BME280;45703;50.898;6.054;2023-06-19T10:16:06;99909.41;;;24.93;54.31
59825;BME280;45703;50.898;6.054;2023-06-19T10:18:32;99914.38;;;24.99;54.65
59825;BME280;45703;50.898;6.054;2023-06-19T10:21:16;99911.16;;;24.97;53.61
59825;BME280;45703;50.898;6.054;2023-06-19T10:23:41;99921.13;;;24.93;53.83
59825;BME280;45703;50.898;6.054;2023-06-19T10:26:07;99918.88;;;24.95;53.43
59825;BME280;45703;50.898;6.054;2023-06-19T10:28:33;99917.09;;;24.99;52.28
59825;BME280;45703;50.898;6.054;2023-06-19T10:31:09;99913.72;;;25.02;53.08
59825;BME280;45703;50.898;6.054;2023-06-19T10:33:36;99920.63;;;25.08;53.29
59825;BME280;45703;50.898;6.054;2023-06-19T10:36:18;99926.25;;;25.20;53.65
59825;BME280;45703;50.898;6.054;2023-06-19T10:38:44;99910.69;;;25.29;53.71
59825;BME280;45703;50.898;6.054;2023-06-19T10:41:20;99919.47;;;25.43;53.08
59825;BME280;45703;50.898;6.054;2023-06-19T10:44:18;99922.50;;;25.50;52.54
59825;BME280;45703;50.898;6.054;2023-06-19T10:46:43;99920.06;;;25.57;52.68
59825;BME280;45703;50.898;6.054;2023-06-19T10:49:10;99914.88;;;25.64;51.95
59825;BME280;45703;50.898;6.054;2023-06-19T10:51:40;99915.66;;;25.73;49.95
59825;BME280;45703;50.898;6.054;2023-06-19T10:54:08;99904.06;;;25.76;49.11
59825;BME280;45703;50.898;6.054;2023-06-19T10:56:35;99915.50;;;25.78;50.14
59825;BME280;45703;50.898;6.054;2023-06-19T10:59:03;99919.69;;;25.84;50.78
59825;BME280;45703;50.898;6.054;2023-06-19T11:01:39;99905.16;;;25.92;49.17
59825;BME280;45703;50.898;6.054;2023-06-19T11:04:06;99892.22;;;26.01;49.95
59825;BME280;45703;50.898;6.054;2023-06-19T11:06:32;99911.47;;;26.13;48.87
59825;BME280;45703;50.898;6.054;2023-06-19T11:08:58;99909.16;;;26.23;50.03
59825;BME280;45703;50.898;6.054;2023-06-19T11:11:38;99883.00;;;26.34;51.03
59825;BME280;45703;50.898;6.054;2023-06-19T11:14:04;99896.09;;;26.49;50.54
59825;BME280;45703;50.898;6.054;2023-06-19T11:16:30;99891.25;;;26.55;49.45
59825;BME280;45703;50.898;6.054;2023-06-19T11:18:56;99886.09;;;26.53;48.07
59825;BME280;45703;50.898;6.054;2023-06-19T11:21:32;99889.63;;;26.54;49.62
59825;BME280;45703;50.898;6.054;2023-06-19T11:24:00;99890.47;;;26.54;49.24
59825;BME280;45703;50.898;6.054;2023-06-19T11:26:26;99887.88;;;26.49;48.18
59825;BME280;45703;50.898;6.054;2023-06-19T11:28:51;99895.13;;;26.45;48.70
59825;BME280;45703;50.898;6.054;2023-06-19T11:31:17;99896.16;;;26.41;48.58
59825;BME280;45703;50.898;6.054;2023-06-19T11:33:42;99886.63;;;26.47;48.52
59825;BME280;45703;50.898;6.054;2023-06-19T11:36:08;99890.78;;;26.53;47.70
59825;BME280;45703;50.898;6.054;2023-06-19T11:38:35;99890.09;;;26.56;47.67
59825;BME280;45703;50.898;6.054;2023-06-19T11:41:02;99873.88;;;26.51;48.11
59825;BME280;45703;50.898;6.054;2023-06-19T11:43:28;99876.28;;;26.52;48.38
59825;BME280;45703;50.898;6.054;2023-06-19T11:45:55;99866.91;;;26.53;48.62
59825;BME280;45703;50.898;6.054;2023-06-19T11:48:27;99872.91;;;26.55;48.87
59825;BME280;45703;50.898;6.054;2023-06-19T11:50:53;99878.84;;;26.57;49.20
59825;BME280;45703;50.898;6.054;2023-06-19T11:53:22;99881.63;;;26.49;48.85
59825;BME280;45703;50.898;6.054;2023-06-19T11:55:49;99882.41;;;26.49;48.84
59825;BME280;45703;50.898;6.054;2023-06-19T11:58:14;99880.25;;;26.34;48.52
59825;BME280;45703;50.898;6.054;2023-06-19T12:00:44;99888.81;;;26.33;49.19
59825;BME280;45703;50.898;6.054;2023-06-19T12:03:10;99877.88;;;26.33;49.68
59825;BME280;45703;50.898;6.054;2023-06-19T12:05:37;99885.88;;;26.38;49.36
59825;BME280;45703;50.898;6.054;2023-06-19T12:08:03;99885.22;;;26.41;48.63
59825;BME280;45703;50.898;6.054;2023-06-19T12:10:29;99887.75;;;26.46;48.75
59825;BME280;45703;50.898;6.054;2023-06-19T12:12:55;99882.25;;;26.46;49.03
59825;BME280;45703;50.898;6.054;2023-06-19T12:15:20;99895.13;;;26.54;47.39
59825;BME280;45703;50.898;6.054;2023-06-19T12:17:46;99882.16;;;26.62;48.67
59825;BME280;45703;50.898;6.054;2023-06-19T12:20:12;99883.56;;;26.68;48.40
59825;BME280;45703;50.898;6.054;2023-06-19T12:22:39;99878.53;;;26.70;48.42
59825;BME280;45703;50.898;6.054;2023-06-19T12:25:04;99885.41;;;26.76;48.97
59825;BME280;45703;50.898;6.054;2023-06-19T12:27:30;99885.22;;;26.81;48.25
59825;BME280;45703;50.898;6.054;2023-06-19T12:29:55;99881.00;;;26.84;48.13
59825;BME280;45703;50.898;6.054;2023-06-19T12:32:21;99871.56;;;26.93;48.16
59825;BME280;45703;50.898;6.054;2023-06-19T12:34:46;99877.75;;;27.02;48.12
59825;BME280;45703;50.898;6.054;2023-06-19T12:37:16;99878.84;;;27.10;46.88
59825;BME280;45703;50.898;6.054;2023-06-19T12:39:44;99881.25;;;27.23;46.39
59825;BME280;45703;50.898;6.054;2023-06-19T12:42:10;99874.41;;;27.29;46.26
59825;BME280;45703;50.898;6.054;2023-06-19T12:44:39;99869.31;;;27.40;47.95
59825;BME280;45703;50.898;6.054;2023-06-19T12:47:05;99862.34;;;27.42;47.09
59825;BME280;45703;50.898;6.054;2023-06-19T12:49:31;99863.38;;;27.38;45.73
59825;BME280;45703;50.898;6.054;2023-06-19T12:51:57;99863.03;;;27.39;45.77
59825;BME280;45703;50.898;6.054;2023-06-19T12:54:22;99858.25;;;27.36;45.96
59825;BME280;45703;50.898;6.054;2023-06-19T12:56:48;99855.38;;;27.45;46.01
59825;BME280;45703;50.898;6.054;2023-06-19T12:59:14;99854.13;;;27.54;46.46
59825;BME280;45703;50.898;6.054;2023-06-19T13:01:40;99841.78;;;27.60;45.91